Terminal Aerodrome Forecast
Issued by NWS Wilmington, OH

Current Version | Previous Version | Graphics & Text | Print | Product List | Glossary On
Versions: 1 2 3 4 5 6 7 8 9 10 11 12
478
FTUS41 KILN 211131
TAFCMH
TAF
KCMH 211131Z 2112/2212 30010KT P6SM BKN060
     FM212300 33009KT P6SM BKN080
     FM220500 02008KT P6SM OVC040=

USA.gov is the U.S. government's official web portal to all federal, state and local government web resources and services.